Observation data for Anton on 11/14/2019      Previous  Date       Current Mesonet Observations  Soil Data  Daily Summary Page  Observations in Plain Language
KAOS 140600Z 34007KT 01/M04 A3009 RMK A01 T00121035  RH  071%=      5-min Rain = 0
KAOS 140605Z 34007KT 01/M04 A3009 RMK A01 T00131035  RH  071%=      5-min Rain = 0
KAOS 140610Z 34007KT 01/M04 A3009 RMK A01 T00121036  RH  071%=      5-min Rain = 0
KAOS 140615Z 34007KT 01/M04 A3009 RMK A01 T00111035  RH  072%=      5-min Rain = 0
KAOS 140620Z 35007KT 01/M03 A301 RMK A01 T00121034  RH  072%=      5-min Rain = 0
KAOS 140625Z 35008KT 01/M03 A301 RMK A01 T00141033  RH  072%=      5-min Rain = 0
KAOS 140630Z 35008KT 02/M03 A301 RMK A01 T00161031  RH  071%=      5-min Rain = 0
KAOS 140635Z 35008KT 02/M03 A301 RMK A01 T00171030  RH  071%=      5-min Rain = 0
KAOS 140640Z 35008KT 02/M03 A301 RMK A01 T00171029  RH  072%=      5-min Rain = 0
KAOS 140645Z 35008KT 02/M03 A301 RMK A01 T00181028  RH  072%=      5-min Rain = 0
KAOS 140650Z 35007KT 02/M03 A3011 RMK A01 T00181027  RH  073%=      5-min Rain = 0
KAOS 140655Z 35007KT 02/M03 A3011 RMK A01 T00191026  RH  072%=      5-min Rain = 0
KAOS 140700Z 35007KT 02/M03 A3011 RMK A01 T00201025  RH  072%=      5-min Rain = 0
KAOS 140705Z 35007KT 02/M03 A3011 RMK A01 T00211025  RH  072%=      5-min Rain = 0
KAOS 140710Z 35008KT 02/M02 A3011 RMK A01 T00231024  RH  072%=      5-min Rain = 0
KAOS 140715Z 35008KT 02/M02 A3012 RMK A01 T00241024  RH  071%=      5-min Rain = 0
KAOS 140720Z 35007KT 03/M02 A3012 RMK A01 T00251024  RH  071%=      5-min Rain = 0
KAOS 140725Z 34008KT 02/M03 A3012 RMK A01 T00241025  RH  071%=      5-min Rain = 0
KAOS 140730Z 34008KT 02/M03 A3012 RMK A01 T00211025  RH  072%=      5-min Rain = 0
KAOS 140735Z 34009KT 02/M03 A3012 RMK A01 T00191026  RH  073%=      5-min Rain = 0
KAOS 140740Z 34009KT 02/M03 A3012 RMK A01 T00211026  RH  072%=      5-min Rain = 0
KAOS 140745Z 34009KT 02/M03 A3013 RMK A01 T00211027  RH  071%=      5-min Rain = 0
KAOS 140750Z 35010KT 02/M03 A3013 RMK A01 T00241029  RH  069%=      5-min Rain = 0
KAOS 140755Z 36010KT 03/M03 A3013 RMK A01 T00281033  RH  065%=      5-min Rain = 0
KAOS 140800Z 36009KT 03/M04 A3014 RMK A01 T00281036  RH  063%=      5-min Rain = 0
KAOS 140805Z 00009KT 03/M04 A3014 RMK A01 T00291038  RH  062%=      5-min Rain = 0
KAOS 140810Z 00009KT 03/M04 A3014 RMK A01 T00291040  RH  061%=      5-min Rain = 0
KAOS 140815Z 00009KT 03/M04 A3015 RMK A01 T00281041  RH  061%=      5-min Rain = 0
KAOS 140820Z 00009KT 03/M04 A3015 RMK A01 T00281043  RH  060%=      5-min Rain = 0
KAOS 140825Z 01009KT 03/M04 A3015 RMK A01 T00291044  RH  059%=      5-min Rain = 0
KAOS 140830Z 01009KT 03/M05 A3015 RMK A01 T00291046  RH  058%=      5-min Rain = 0
KAOS 140835Z 01010KT 03/M05 A3015 RMK A01 T00301047  RH  057%=      5-min Rain = 0
KAOS 140840Z 01010KT 03/M05 A3015 RMK A01 T00301048  RH  057%=      5-min Rain = 0
KAOS 140845Z 01010KT 03/M05 A3016 RMK A01 T00301049  RH  056%=      5-min Rain = 0
KAOS 140850Z 01010KT 03/M05 A3016 RMK A01 T00291050  RH  056%=      5-min Rain = 0
KAOS 140855Z 01010KT 03/M05 A3016 RMK A01 T00271050  RH  057%=      5-min Rain = 0
KAOS 140900Z 00010KT 03/M05 A3017 RMK A01 T00261050  RH  057%=      5-min Rain = 0
KAOS 140905Z 00010KT 03/M05 A3017 RMK A01 T00251051  RH  058%=      5-min Rain = 0
KAOS 140910Z 36010KT 02/M05 A3017 RMK A01 T00231051  RH  059%=      5-min Rain = 0
KAOS 140915Z 00009KT 02/M05 A3017 RMK A01 T00201051  RH  060%=      5-min Rain = 0
KAOS 140920Z 00008KT 02/M05 A3017 RMK A01 T00201051  RH  059%=      5-min Rain = 0
KAOS 140925Z 00008KT 02/M05 A3018 RMK A01 T00191051  RH  060%=      5-min Rain = 0
KAOS 140930Z 35006KT 02/M05 A3018 RMK A01 T00171051  RH  060%=      5-min Rain = 0
KAOS 140935Z 35006KT 01/M05 A3018 RMK A01 T00141051  RH  062%=      5-min Rain = 0
KAOS 140940Z 34005KT 01/M05 A3018 RMK A01 T00071053  RH  064%=      5-min Rain = 0
KAOS 140945Z 35006KT 00/M05 A3018 RMK A01 T00021053  RH  067%=      5-min Rain = 0
KAOS 140950Z 35006KT 00/05 A3018 RMK A01 T00-00-53  RH  068%=      5-min Rain = 0
KAOS 140955Z 35006KT M00/M05 A3018 RMK A01 T10011052  RH  069%=      5-min Rain = 0
KAOS 141000Z 34007KT M00/M05 A3019 RMK A01 T10041053  RH  070%=      5-min Rain = 0
KAOS 141005Z 35007KT M00/M05 A3019 RMK A01 T10041053  RH  070%=      5-min Rain = 0
KAOS 141010Z 36008KT M00/M05 A3019 RMK A01 T10021050  RH  070%=      5-min Rain = 0
KAOS 141015Z 01009KT 01/M05 A3019 RMK A01 T00071049  RH  067%=      5-min Rain = 0
KAOS 141020Z 01010KT 01/M05 A3019 RMK A01 T00111049  RH  065%=      5-min Rain = 0
KAOS 141025Z 01009KT 01/M05 A3019 RMK A01 T00131049  RH  064%=      5-min Rain = 0
KAOS 141030Z 01009KT 01/M05 A3019 RMK A01 T00131048  RH  064%=      5-min Rain = 0
KAOS 141035Z 01009KT 01/M05 A3019 RMK A01 T00131048  RH  064%=      5-min Rain = 0
KAOS 141040Z 01009KT 01/M05 A302 RMK A01 T00141047  RH  064%=      5-min Rain = 0
KAOS 141045Z 01009KT 01/M05 A302 RMK A01 T00141047  RH  064%=      5-min Rain = 0
KAOS 141050Z 01008KT 01/M05 A302 RMK A01 T00131047  RH  064%=      5-min Rain = 0
KAOS 141055Z 01008KT 01/M05 A302 RMK A01 T00121047  RH  065%=      5-min Rain = 0
KAOS 141100Z 01008KT 01/M05 A302 RMK A01 T00101047  RH  066%=      5-min Rain = 0
KAOS 141105Z 01007KT 01/M05 A302 RMK A01 T00091047  RH  066%=      5-min Rain = 0
KAOS 141110Z 01007KT 01/M05 A302 RMK A01 T00071047  RH  068%=      5-min Rain = 0
KAOS 141115Z 01007KT 01/M05 A3021 RMK A01 T00061047  RH  068%=      5-min Rain = 0
KAOS 141120Z 01007KT 01/M05 A3021 RMK A01 T00071046  RH  068%=      5-min Rain = 0
KAOS 141125Z 01007KT 01/M05 A3021 RMK A01 T00071046  RH  068%=      5-min Rain = 0
KAOS 141130Z 01007KT 01/M05 A3021 RMK A01 T00071046  RH  068%=      5-min Rain = 0
KAOS 141135Z 01007KT 01/M05 A3022 RMK A01 T00071046  RH  068%=      5-min Rain = 0
KAOS 141140Z 01007KT 01/M05 A3022 RMK A01 T00071046  RH  068%=      5-min Rain = 0
KAOS 141145Z 02007KT 01/M05 A3022 RMK A01 T00061046  RH  068%=      5-min Rain = 0
KAOS 141150Z 02008KT 01/M05 A3022 RMK A01 T00061046  RH  068%=      5-min Rain = 0
KAOS 141155Z 02008KT 01/M05 A3022 RMK A01 T00051046  RH  069%=      5-min Rain = 0
KAOS 141200Z 02008KT 01/M05 A3023 RMK A01 T00051046  RH  069%=      5-min Rain = 0
KAOS 141205Z 02008KT 01/M05 A3023 RMK A01 T00051046  RH  069%=      5-min Rain = 0
KAOS 141210Z 01008KT 00/M05 A3023 RMK A01 T00041046  RH  070%=      5-min Rain = 0
KAOS 141215Z 01008KT 00/M05 A3024 RMK A01 T00041045  RH  070%=      5-min Rain = 0
KAOS 141220Z 01008KT 00/M05 A3024 RMK A01 T00031045  RH  071%=      5-min Rain = 0
KAOS 141225Z 01008KT 00/M04 A3024 RMK A01 T00031044  RH  071%=      5-min Rain = 0
KAOS 141230Z 01007KT 00/M04 A3024 RMK A01 T00041044  RH  071%=      5-min Rain = 0
KAOS 141235Z 02007KT 00/M04 A3025 RMK A01 T00041043  RH  071%=      5-min Rain = 0
KAOS 141240Z 02007KT 01/M04 A3025 RMK A01 T00051042  RH  071%=      5-min Rain = 0
KAOS 141245Z 01006KT 01/M04 A3026 RMK A01 T00051042  RH  071%=      5-min Rain = 0
KAOS 141250Z 01006KT 00/M04 A3027 RMK A01 T00031042  RH  072%=      5-min Rain = 0
KAOS 141255Z 35005KT 00/M04 A3027 RMK A01 T00011042  RH  073%=      5-min Rain = 0
KAOS 141300Z 35005KT M00/M04 A3028 RMK A01 T10021042  RH  075%=      5-min Rain = 0
KAOS 141305Z 35005KT M01/M04 A3028 RMK A01 T10051043  RH  076%=      5-min Rain = 0
KAOS 141310Z 36005KT M01/M04 A3028 RMK A01 T10051042  RH  076%=      5-min Rain = 0
KAOS 141315Z 00006KT M01/M04 A3029 RMK A01 T10061043  RH  077%=      5-min Rain = 0
KAOS 141320Z 00006KT M01/M04 A3029 RMK A01 T10071043  RH  077%=      5-min Rain = 0
KAOS 141325Z 00006KT M01/M04 A3029 RMK A01 T10071042  RH  078%=      5-min Rain = 0
KAOS 141330Z 00006KT M01/M04 A303 RMK A01 T10061041  RH  077%=      5-min Rain = 0
KAOS 141335Z 00006KT M00/M04 A303 RMK A01 T10041040  RH  077%=      5-min Rain = 0
KAOS 141340Z 36007KT M00/M04 A303 RMK A01 T10021038  RH  077%=      5-min Rain = 0
KAOS 141345Z 00006KT 00/04 A3031 RMK A01 T00000-37  RH  076%=      5-min Rain = 0
KAOS 141350Z 01007KT 00/M04 A3031 RMK A01 T00031036  RH  075%=      5-min Rain = 0
KAOS 141355Z 01006KT 01/M03 A3031 RMK A01 T00061034  RH  075%=      5-min Rain = 0
KAOS 141400Z 02006KT 01/M03 A3032 RMK A01 T00091033  RH  074%=      5-min Rain = 0
KAOS 141405Z 01007KT 01/M03 A3032 RMK A01 T00121032  RH  073%=      5-min Rain = 0
KAOS 141410Z 01007KT 01/M03 A3032 RMK A01 T00141030  RH  073%=      5-min Rain = 0
KAOS 141415Z 01009KT 02/M03 A3033 RMK A01 T00171029  RH  072%=      5-min Rain = 0
KAOS 141420Z 01010KT 02/M03 A3033 RMK A01 T00181029  RH  071%=      5-min Rain = 0
KAOS 141425Z 01008KT 02/M03 A3033 RMK A01 T00211028  RH  071%=      5-min Rain = 0
KAOS 141430Z 02010KT 02/M03 A3034 RMK A01 T00221028  RH  070%=      5-min Rain = 0
KAOS 141435Z 02008KT 02/M03 A3034 RMK A01 T00241026  RH  070%=      5-min Rain = 0
KAOS 141440Z 03008KT 03/M03 A3034 RMK A01 T00271025  RH  069%=      5-min Rain = 0
KAOS 141445Z 03008KT 03/M02 A3034 RMK A01 T00281024  RH  069%=      5-min Rain = 0
KAOS 141450Z 03007KT 03/M02 A3034 RMK A01 T00301023  RH  069%=      5-min Rain = 0
KAOS 141455Z 03008KT 03/M02 A3035 RMK A01 T00321022  RH  068%=      5-min Rain = 0
KAOS 141500Z 02008KT 04/M02 A3035 RMK A01 T00351019  RH  068%=      5-min Rain = 0
KAOS 141505Z 04009KT 04/M02 A3035 RMK A01 T00381018  RH  067%=      5-min Rain = 0
KAOS 141510Z 04010KT 04/M02 A3036 RMK A01 T00381019  RH  067%=      5-min Rain = 0
KAOS 141515Z 05009KT 04/M02 A3036 RMK A01 T00391018  RH  067%=      5-min Rain = 0
KAOS 141520Z 04010G15KT 04/M02 A3036 RMK A01 T00421016  RH  066%=      5-min Rain = 0
KAOS 141525Z 04010KT 05/M02 A3037 RMK A01 T00451016  RH  065%=      5-min Rain = 0
KAOS 141530Z 05010KT 05/M02 A3037 RMK A01 T00461015  RH  065%=      5-min Rain = 0
KAOS 141535Z 05008KT 05/M01 A3037 RMK A01 T00511013  RH  064%=      5-min Rain = 0
KAOS 141540Z 06011G16KT 06/M01 A3037 RMK A01 T00551011  RH  063%=      5-min Rain = 0
KAOS 141545Z 06011KT 06/M01 A3037 RMK A01 T00561010  RH  063%=      5-min Rain = 0
KAOS 141550Z 06011KT 06/M01 A3038 RMK A01 T00571010  RH  063%=      5-min Rain = 0
KAOS 141555Z 06010KT 06/M01 A3038 RMK A01 T00581008  RH  063%=      5-min Rain = 0
KAOS 141600Z 05011KT 06/M01 A3038 RMK A01 T00601007  RH  063%=      5-min Rain = 0
KAOS 141605Z 05011KT 06/M01 A3039 RMK A01 T00621007  RH  062%=      5-min Rain = 0
KAOS 141610Z 05010KT 06/M01 A3039 RMK A01 T00631006  RH  062%=      5-min Rain = 0
KAOS 141615Z 05011KT 07/M01 A3039 RMK A01 T00661005  RH  061%=      5-min Rain = 0
KAOS 141620Z 04013KT 07/M00 A3039 RMK A01 T00681003  RH  061%=      5-min Rain = 0
KAOS 141625Z 05012G17KT 07/M00 A3039 RMK A01 T00691004  RH  061%=      5-min Rain = 0
KAOS 141630Z 06013G18KT 07/M00 A3039 RMK A01 T00701003  RH  060%=      5-min Rain = 0
KAOS 141635Z 05012KT 07/M00 A304 RMK A01 T00731002  RH  060%=      5-min Rain = 0
KAOS 141640Z 05013G18KT 07/M00 A304 RMK A01 T00741003  RH  059%=      5-min Rain = 0
KAOS 141645Z 05012G17KT 08/M00 A304 RMK A01 T00781002  RH  058%=      5-min Rain = 0
KAOS 141650Z 05012KT 08/M00 A304 RMK A01 T00791003  RH  057%=      5-min Rain = 0
KAOS 141655Z 06013KT 08/M01 A304 RMK A01 T00801005  RH  055%=      5-min Rain = 0
KAOS 141700Z 07012KT 08/M01 A304 RMK A01 T00801005  RH  056%=      5-min Rain = 0
KAOS 141705Z 05011G16KT 08/M01 A304 RMK A01 T00811005  RH  055%=      5-min Rain = 0
KAOS 141710Z 05011KT 08/M01 A304 RMK A01 T00831005  RH  055%=      5-min Rain = 0
KAOS 141715Z 04013KT 09/M01 A304 RMK A01 T00851005  RH  054%=      5-min Rain = 0
KAOS 141720Z 06013G18KT 09/M01 A304 RMK A01 T00861005  RH  053%=      5-min Rain = 0
KAOS 141725Z 05014G21KT 09/M01 A304 RMK A01 T00911007  RH  051%=      5-min Rain = 0
KAOS 141730Z 04014G19KT 09/M01 A304 RMK A01 T00921009  RH  050%=      5-min Rain = 0
KAOS 141735Z 05015G21KT 09/M01 A304 RMK A01 T00911011  RH  049%=      5-min Rain = 0
KAOS 141740Z 05015G21KT 09/M01 A304 RMK A01 T00921014  RH  048%=      5-min Rain = 0
KAOS 141745Z 05014G19KT 09/M01 A304 RMK A01 T00921013  RH  048%=      5-min Rain = 0
KAOS 141750Z 04014KT 10/M01 A304 RMK A01 T00951014  RH  047%=      5-min Rain = 0
KAOS 141755Z 04013G18KT 09/M01 A304 RMK A01 T00941014  RH  047%=      5-min Rain = 0
KAOS 141800Z 04013G18KT 10/M01 A304 RMK A01 T00961013  RH  047%=      5-min Rain = 0
KAOS 141805Z 06012G17KT 10/M01 A3039 RMK A01 T00961013  RH  047%=      5-min Rain = 0
KAOS 141810Z 06010G17KT 10/M01 A3039 RMK A01 T00981012  RH  047%=      5-min Rain = 0
KAOS 141815Z 05010KT 10/M01 A3039 RMK A01 T00991012  RH  046%=      5-min Rain = 0
KAOS 141820Z 06010KT 10/M01 A3039 RMK A01 T01001013  RH  046%=      5-min Rain = 0
KAOS 141825Z 06011G16KT 10/M01 A3039 RMK A01 T01011014  RH  045%=      5-min Rain = 0
KAOS 141830Z 06008G14KT 10/M02 A3038 RMK A01 T01001015  RH  045%=      5-min Rain = 0
KAOS 141835Z 06011G17KT 10/M02 A3038 RMK A01 T01001016  RH  045%=      5-min Rain = 0
KAOS 141840Z 05008KT 10/M02 A3038 RMK A01 T01001016  RH  044%=      5-min Rain = 0
KAOS 141845Z 04012KT 11/M02 A3038 RMK A01 T01061018  RH  042%=      5-min Rain = 0
KAOS 141850Z 04009KT 10/M02 A3038 RMK A01 T01031020  RH  042%=      5-min Rain = 0
KAOS 141855Z 05010KT 11/M02 A3038 RMK A01 T01081020  RH  041%=      5-min Rain = 0
KAOS 141900Z 05009KT 11/M02 A3038 RMK A01 T01061021  RH  041%=      5-min Rain = 0
KAOS 141905Z 06009G22KT 11/M02 A3037 RMK A01 T01061020  RH  042%=      5-min Rain = 0
KAOS 141910Z 04008G14KT 11/M02 A3037 RMK A01 T01091020  RH  041%=      5-min Rain = 0
KAOS 141915Z 05009KT 11/M02 A3037 RMK A01 T01111020  RH  040%=      5-min Rain = 0
KAOS 141920Z 05008G13KT 11/M02 A3037 RMK A01 T01091020  RH  041%=      5-min Rain = 0
KAOS 141925Z 04008G14KT 11/M02 A3037 RMK A01 T01121020  RH  040%=      5-min Rain = 0
KAOS 141930Z 05007KT 11/M02 A3037 RMK A01 T01121020  RH  040%=      5-min Rain = 0
KAOS 141935Z 05010G15KT 11/M02 A3036 RMK A01 T01121022  RH  039%=      5-min Rain = 0
KAOS 141940Z 06006KT 11/M02 A3036 RMK A01 T01121021  RH  040%=      5-min Rain = 0
KAOS 141945Z 07006KT 11/M02 A3036 RMK A01 T01111022  RH  040%=      5-min Rain = 0
KAOS 141950Z 05007KT 11/M02 A3036 RMK A01 T01141021  RH  039%=      5-min Rain = 0
KAOS 141955Z 06008KT 12/M02 A3036 RMK A01 T01161021  RH  039%=      5-min Rain = 0
KAOS 142000Z 06007G12KT 12/M02 A3036 RMK A01 T01161020  RH  039%=      5-min Rain = 0
KAOS 142005Z 06008G13KT 12/M02 A3035 RMK A01 T01171020  RH  039%=      5-min Rain = 0
KAOS 142010Z 06007KT 12/M02 A3035 RMK A01 T01171021  RH  038%=      5-min Rain = 0
KAOS 142015Z 05005KT 12/M02 A3035 RMK A01 T01151021  RH  039%=      5-min Rain = 0
KAOS 142020Z 06006KT 12/M02 A3035 RMK A01 T01171019  RH  039%=      5-min Rain = 0
KAOS 142025Z 06007KT 12/M02 A3035 RMK A01 T01191021  RH  038%=      5-min Rain = 0
KAOS 142030Z 04008KT 12/M02 A3035 RMK A01 T01171022  RH  038%=      5-min Rain = 0
KAOS 142035Z 03004KT 12/M02 A3035 RMK A01 T01151021  RH  039%=      5-min Rain = 0
KAOS 142040Z 06006KT 12/M02 A3035 RMK A01 T01191019  RH  038%=      5-min Rain = 0
KAOS 142045Z 03007KT 12/M02 A3035 RMK A01 T01241021  RH  037%=      5-min Rain = 0
KAOS 142050Z 06006KT 12/M02 A3035 RMK A01 T01191022  RH  038%=      5-min Rain = 0
KAOS 142055Z 04005KT 12/M02 A3035 RMK A01 T01171022  RH  038%=      5-min Rain = 0
KAOS 142100Z 06006G11KT 12/M02 A3035 RMK A01 T01171021  RH  038%=      5-min Rain = 0
KAOS 142105Z 05007G12KT 12/M02 A3034 RMK A01 T01191019  RH  039%=      5-min Rain = 0
KAOS 142110Z 08008G15KT 12/M02 A3034 RMK A01 T01231018  RH  038%=      5-min Rain = 0
KAOS 142115Z 04006KT 12/M02 A3035 RMK A01 T01211021  RH  037%=      5-min Rain = 0
KAOS 142120Z 04005KT 12/M02 A3035 RMK A01 T01191021  RH  038%=      5-min Rain = 0
KAOS 142125Z 07006G11KT 12/M02 A3035 RMK A01 T01221019  RH  038%=      5-min Rain = 0
KAOS 142130Z 07008KT 12/M02 A3035 RMK A01 T01201021  RH  038%=      5-min Rain = 0
KAOS 142135Z 06008KT 12/M02 A3034 RMK A01 T01211019  RH  038%=      5-min Rain = 0
KAOS 142140Z 09006KT 12/M02 A3035 RMK A01 T01191020  RH  038%=      5-min Rain = 0
KAOS 142145Z 09005KT 12/M02 A3035 RMK A01 T01181019  RH  039%=      5-min Rain = 0
KAOS 142150Z 08005KT 12/M02 A3035 RMK A01 T01181020  RH  039%=      5-min Rain = 0
KAOS 142155Z 06007KT 12/M02 A3035 RMK A01 T01201022  RH  037%=      5-min Rain = 0
KAOS 142200Z 06007KT 12/M02 A3035 RMK A01 T01191022  RH  038%=      5-min Rain = 0
KAOS 142205Z 04005KT 12/M02 A3035 RMK A01 T01181022  RH  038%=      5-min Rain = 0
KAOS 142210Z 08006KT 12/M02 A3035 RMK A01 T01191021  RH  038%=      5-min Rain = 0
KAOS 142215Z 08004KT 12/M02 A3035 RMK A01 T01181021  RH  038%=      5-min Rain = 0
KAOS 142220Z 03005KT 12/M02 A3035 RMK A01 T01181021  RH  038%=      5-min Rain = 0
KAOS 142225Z 36002KT 12/M02 A3035 RMK A01 T01171022  RH  038%=      5-min Rain = 0
KAOS 142230Z 09003KT 12/M02 A3035 RMK A01 T01171022  RH  038%=      5-min Rain = 0
KAOS 142235Z 05003KT 12/M02 A3035 RMK A01 T01161021  RH  039%=      5-min Rain = 0
KAOS 142240Z 05007KT 12/M02 A3035 RMK A01 T01171021  RH  038%=      5-min Rain = 0
KAOS 142245Z 06005KT 12/M02 A3035 RMK A01 T01151022  RH  039%=      5-min Rain = 0
KAOS 142250Z 06003KT 12/M02 A3035 RMK A01 T01151021  RH  039%=      5-min Rain = 0
KAOS 142255Z 04003KT 12/M02 A3035 RMK A01 T01151022  RH  039%=      5-min Rain = 0
KAOS 142300Z 08003KT 12/M02 A3035 RMK A01 T01151022  RH  039%=      5-min Rain = 0
KAOS 142305Z 07005KT 11/M02 A3035 RMK A01 T01131021  RH  040%=      5-min Rain = 0
KAOS 142310Z 07006KT 11/M02 A3035 RMK A01 T01131020  RH  040%=      5-min Rain = 0
KAOS 142315Z 05003KT 11/M02 A3036 RMK A01 T01121021  RH  040%=      5-min Rain = 0
KAOS 142320Z 09004KT 11/M02 A3036 RMK A01 T01101020  RH  040%=      5-min Rain = 0
KAOS 142325Z 11003KT 11/M02 A3036 RMK A01 T01071019  RH  041%=      5-min Rain = 0
KAOS 142330Z 11004KT 11/M02 A3036 RMK A01 T01051020  RH  042%=      5-min Rain = 0
KAOS 142335Z 11004KT 10/M02 A3036 RMK A01 T01031019  RH  043%=      5-min Rain = 0
KAOS 142340Z 12003KT 10/M02 A3036 RMK A01 T01001019  RH  044%=      5-min Rain = 0
KAOS 142345Z 12004KT 10/M02 A3036 RMK A01 T00951020  RH  045%=      5-min Rain = 0
KAOS 142350Z 12004KT 09/M02 A3036 RMK A01 T00901020  RH  046%=      5-min Rain = 0
KAOS 142355Z 12005KT 09/M02 A3037 RMK A01 T00851021  RH  048%=      5-min Rain = 0
KAOS 150000Z 12005KT 08/M02 A3037 RMK A01 T00821021  RH  049%=      5-min Rain = 0
KAOS 150005Z 14004KT 08/M02 A3037 RMK A01 T00781021  RH  050%=      5-min Rain = 0
KAOS 150010Z 14004KT 07/M02 A3037 RMK A01 T00741019  RH  052%=      5-min Rain = 0
KAOS 150015Z 14003KT 07/M02 A3038 RMK A01 T00711019  RH  053%=      5-min Rain = 0
KAOS 150020Z 14003KT 07/M02 A3038 RMK A01 T00691020  RH  054%=      5-min Rain = 0
KAOS 150025Z 14003KT 07/M02 A3038 RMK A01 T00671020  RH  054%=      5-min Rain = 0
KAOS 150030Z 13004KT 07/M02 A3038 RMK A01 T00681020  RH  054%=      5-min Rain = 0
KAOS 150035Z 15003KT 06/M02 A3038 RMK A01 T00631024  RH  054%=      5-min Rain = 0
KAOS 150040Z 15003KT 05/M03 A3038 RMK A01 T00521026  RH  058%=      5-min Rain = 0
KAOS 150045Z 17003KT 05/M03 A3039 RMK A01 T00471025  RH  060%=      5-min Rain = 0
KAOS 150050Z 17003KT 05/M02 A3039 RMK A01 T00471022  RH  061%=      5-min Rain = 0
KAOS 150055Z 17003KT 05/M02 A3039 RMK A01 T00481021  RH  061%=      5-min Rain = 0
KAOS 150100Z 16003KT 05/M02 A3039 RMK A01 T00491022  RH  060%=      5-min Rain = 0
KAOS 150105Z 16003KT 05/M02 A3039 RMK A01 T00471024  RH  061%=      5-min Rain = 0
KAOS 150110Z 17003KT 04/M03 A304 RMK A01 T00431025  RH  062%=      5-min Rain = 0
KAOS 150115Z 17003KT 04/M03 A304 RMK A01 T00411025  RH  062%=      5-min Rain = 0
KAOS 150120Z 17003KT 04/M03 A304 RMK A01 T00411025  RH  062%=      5-min Rain = 0
KAOS 150125Z 16003KT 04/M03 A304 RMK A01 T00421025  RH  062%=      5-min Rain = 0
KAOS 150130Z 16003KT 04/M02 A304 RMK A01 T00431024  RH  062%=      5-min Rain = 0
KAOS 150135Z 15003KT 04/M02 A304 RMK A01 T00431024  RH  062%=      5-min Rain = 0
KAOS 150140Z 15003KT 04/M02 A304 RMK A01 T00431024  RH  062%=      5-min Rain = 0
KAOS 150145Z 15003KT 04/M03 A304 RMK A01 T00421025  RH  062%=      5-min Rain = 0
KAOS 150150Z 14002KT 04/M03 A304 RMK A01 T00411025  RH  063%=      5-min Rain = 0
KAOS 150155Z 15002KT 04/M03 A304 RMK A01 T00371027  RH  063%=      5-min Rain = 0
KAOS 150200Z 15002KT 03/M03 A304 RMK A01 T00331028  RH  065%=      5-min Rain = 0
KAOS 150205Z 15002KT 03/M03 A304 RMK A01 T00321027  RH  065%=      5-min Rain = 0
KAOS 150210Z 15002KT 03/M03 A304 RMK A01 T00321026  RH  066%=      5-min Rain = 0
KAOS 150215Z 16002KT 03/M03 A3041 RMK A01 T00341026  RH  066%=      5-min Rain = 0
KAOS 150220Z 15002KT 04/M02 A304 RMK A01 T00351024  RH  066%=      5-min Rain = 0
KAOS 150225Z 15003KT 04/M02 A304 RMK A01 T00361024  RH  065%=      5-min Rain = 0
KAOS 150230Z 15003KT 04/M02 A304 RMK A01 T00361024  RH  065%=      5-min Rain = 0
KAOS 150235Z 14003KT 04/M03 A304 RMK A01 T00351025  RH  065%=      5-min Rain = 0
KAOS 150240Z 15003KT 04/M03 A3041 RMK A01 T00351025  RH  065%=      5-min Rain = 0
KAOS 150245Z 15003KT 03/M02 A3041 RMK A01 T00341024  RH  066%=      5-min Rain = 0
KAOS 150250Z 15003KT 03/M02 A3041 RMK A01 T00341024  RH  066%=      5-min Rain = 0
KAOS 150255Z 16003KT 03/M03 A3041 RMK A01 T00311027  RH  066%=      5-min Rain = 0
KAOS 150300Z 16003KT 03/M03 A3041 RMK A01 T00271028  RH  068%=      5-min Rain = 0
KAOS 150305Z 16004KT 02/M03 A3041 RMK A01 T00231030  RH  068%=      5-min Rain = 0
KAOS 150310Z 16004KT 02/M03 A3042 RMK A01 T00221029  RH  070%=      5-min Rain = 0
KAOS 150315Z 17003KT 02/M03 A3042 RMK A01 T00241027  RH  070%=      5-min Rain = 0
KAOS 150320Z 17003KT 02/M03 A3042 RMK A01 T00241027  RH  069%=      5-min Rain = 0
KAOS 150325Z 18003KT 02/M03 A3042 RMK A01 T00221028  RH  070%=      5-min Rain = 0
KAOS 150330Z 18004KT 02/M03 A3042 RMK A01 T00191028  RH  071%=      5-min Rain = 0
KAOS 150335Z 18004KT 02/M03 A3042 RMK A01 T00181028  RH  072%=      5-min Rain = 0
KAOS 150340Z 17004KT 02/M03 A3042 RMK A01 T00171029  RH  072%=      5-min Rain = 0
KAOS 150345Z 18003KT 02/M03 A3042 RMK A01 T00171029  RH  072%=      5-min Rain = 0
KAOS 150350Z 20003KT 02/M03 A3042 RMK A01 T00171029  RH  072%=      5-min Rain = 0
KAOS 150355Z 21004KT 02/M03 A3042 RMK A01 T00161029  RH  073%=      5-min Rain = 0
KAOS 150400Z 21004KT 02/M03 A3042 RMK A01 T00161028  RH  073%=      5-min Rain = 0
KAOS 150405Z 21005KT 02/M03 A3042 RMK A01 T00161028  RH  073%=      5-min Rain = 0
KAOS 150410Z 21005KT 02/M03 A3042 RMK A01 T00151028  RH  074%=      5-min Rain = 0
KAOS 150415Z 20005KT 02/M03 A3043 RMK A01 T00151027  RH  075%=      5-min Rain = 0
KAOS 150420Z 20005KT 02/M03 A3043 RMK A01 T00161026  RH  074%=      5-min Rain = 0
KAOS 150425Z 21005KT 02/M03 A3043 RMK A01 T00151027  RH  074%=      5-min Rain = 0
KAOS 150430Z 20005KT 01/M03 A3043 RMK A01 T00141027  RH  075%=      5-min Rain = 0
KAOS 150435Z 21005KT 01/M03 A3043 RMK A01 T00131028  RH  075%=      5-min Rain = 0
KAOS 150440Z 21005KT 01/M03 A3043 RMK A01 T00131027  RH  075%=      5-min Rain = 0
KAOS 150445Z 21004KT 01/M03 A3043 RMK A01 T00121028  RH  075%=      5-min Rain = 0
KAOS 150450Z 21005KT 01/M03 A3043 RMK A01 T00131027  RH  075%=      5-min Rain = 0
KAOS 150455Z 21005KT 01/M03 A3043 RMK A01 T00141027  RH  075%=      5-min Rain = 0
KAOS 150500Z 21005KT 01/M03 A3043 RMK A01 T00131028  RH  075%=      5-min Rain = 0
KAOS 150505Z 21004KT 01/M03 A3043 RMK A01 T00111028  RH  075%=      5-min Rain = 0
KAOS 150510Z 21004KT 01/M03 A3043 RMK A01 T00101028  RH  076%=      5-min Rain = 0
KAOS 150515Z 22005KT 01/M03 A3043 RMK A01 T00101028  RH  076%=      5-min Rain = 0
KAOS 150520Z 21005KT 01/M03 A3043 RMK A01 T00111028  RH  076%=      5-min Rain = 0
KAOS 150525Z 21004KT 01/M03 A3043 RMK A01 T00091029  RH  076%=      5-min Rain = 0
KAOS 150530Z 21004KT 01/M03 A3043 RMK A01 T00081029  RH  076%=      5-min Rain = 0
KAOS 150535Z 21004KT 01/M03 A3043 RMK A01 T00081030  RH  076%=      5-min Rain = 0
KAOS 150540Z 21004KT 01/M03 A3043 RMK A01 T00061031  RH  077%=      5-min Rain = 0
KAOS 150545Z 21004KT 01/M03 A3043 RMK A01 T00061030  RH  078%=      5-min Rain = 0
KAOS 150550Z 22004KT 01/M03 A3043 RMK A01 T00071029  RH  077%=      5-min Rain = 0
KAOS 150555Z 21004KT 01/M03 A3043 RMK A01 T00061030  RH  077%=      5-min Rain = 0

Page generated in 0.013 seconds.